createdAt,value
2018-12-03T00:04:30.950Z,11.83
2018-12-03T00:09:33.022Z,11.69
2018-12-03T00:14:35.151Z,11.60
2018-12-03T00:19:37.212Z,11.47
2018-12-03T00:24:39.372Z,11.25
2018-12-03T00:29:41.754Z,11.10
2018-12-03T00:34:44.327Z,10.99
2018-12-03T00:39:46.716Z,11.14
2018-12-03T00:44:48.762Z,11.27
2018-12-03T00:49:50.806Z,11.43
2018-12-03T00:54:53.367Z,11.60
2018-12-03T01:05:25.184Z,11.78
2018-12-03T01:10:28.732Z,11.70
2018-12-03T01:15:32.083Z,11.71
2018-12-03T01:20:35.434Z,11.40
2018-12-03T01:25:39.160Z,11.40
2018-12-03T01:30:42.902Z,11.28
2018-12-03T01:35:46.783Z,11.16
2018-12-03T01:40:50.368Z,11.15
2018-12-03T01:45:54.066Z,11.04
2018-12-03T01:50:57.428Z,10.98
2018-12-03T01:56:01.066Z,10.83
2018-12-03T02:01:04.730Z,10.93
2018-12-03T02:06:08.365Z,11.09
2018-12-03T02:11:11.759Z,11.01
2018-12-03T02:16:15.141Z,10.99
2018-12-03T02:21:18.820Z,10.93
2018-12-03T02:26:22.345Z,11.06
2018-12-03T02:31:25.763Z,11.18
2018-12-03T02:36:29.117Z,11.37
2018-12-03T02:41:32.713Z,11.47
2018-12-03T02:46:36.107Z,11.61
2018-12-03T02:51:39.473Z,11.64
2018-12-03T02:56:42.869Z,11.59
2018-12-03T03:01:46.435Z,11.48
2018-12-03T03:06:50.132Z,11.50
2018-12-03T03:11:53.764Z,11.50
2018-12-03T03:16:57.403Z,11.20
2018-12-03T03:22:00.798Z,11.84
2018-12-03T03:27:04.967Z,10.82
2018-12-03T03:32:08.443Z,10.68
2018-12-03T03:37:11.798Z,10.70
2018-12-03T03:53:05.981Z,10.52
2018-12-03T03:58:09.343Z,10.52
2018-12-03T04:03:12.809Z,10.33
2018-12-03T04:08:16.549Z,10.30
2018-12-03T04:13:20.120Z,10.09
2018-12-03T04:18:23.690Z,10.11
2018-12-03T04:23:27.112Z,10.06
2018-12-03T04:28:30.489Z,10.02
2018-12-03T04:33:33.939Z,10.05
2018-12-03T04:38:37.739Z,10.23
2018-12-03T04:43:41.175Z,10.40
2018-12-03T04:48:44.862Z,10.49
2018-12-03T04:53:48.852Z,10.51
2018-12-03T04:58:52.216Z,10.47
2018-12-03T05:03:55.689Z,10.55
2018-12-03T05:08:59.339Z,10.54
2018-12-03T05:14:02.719Z,10.59
2018-12-03T05:19:06.217Z,10.53
2018-12-03T05:24:09.908Z,10.53
2018-12-03T05:29:13.285Z,10.54
2018-12-03T05:34:16.705Z,10.59
2018-12-03T05:39:20.748Z,10.62
2018-12-03T05:44:24.147Z,10.62
2018-12-03T05:49:27.585Z,10.61
2018-12-03T05:54:31.159Z,10.62
2018-12-03T05:59:34.547Z,10.58
2018-12-03T06:04:37.914Z,10.58
2018-12-03T06:09:41.600Z,10.59
2018-12-03T06:14:44.984Z,10.64
2018-12-03T06:19:48.625Z,10.66
2018-12-03T06:24:52.389Z,10.74
2018-12-03T06:29:55.775Z,10.87
2018-12-03T06:34:59.356Z,10.82
2018-12-03T06:40:03.350Z,10.77
2018-12-03T06:45:08.762Z,10.79
2018-12-03T06:50:12.161Z,10.86
2018-12-03T06:55:15.790Z,10.76
2018-12-03T07:00:20.682Z,10.89
2018-12-03T07:05:24.068Z,10.80
2018-12-03T07:10:27.459Z,10.83
2018-12-03T07:15:32.923Z,10.69
2018-12-03T07:20:36.345Z,10.65
2018-12-03T07:25:39.700Z,10.63
2018-12-03T07:30:43.261Z,10.60
2018-12-03T07:35:46.654Z,10.41
2018-12-03T07:40:50.175Z,10.41
2018-12-03T07:45:53.544Z,10.55
2018-12-03T07:50:56.927Z,10.66
2018-12-03T07:56:01.174Z,10.72
2018-12-03T08:01:04.975Z,10.83
2018-12-03T08:06:08.356Z,11.02
2018-12-03T08:11:11.748Z,11.08
2018-12-03T08:16:15.982Z,11.04
2018-12-03T08:21:19.513Z,11.08
2018-12-03T08:26:23.544Z,11.02
2018-12-03T08:31:27.076Z,11.16
2018-12-03T08:36:30.464Z,11.26
2018-12-03T08:41:35.235Z,11.30
2018-12-03T08:46:38.941Z,11.43
2018-12-03T08:51:42.360Z,11.43
2018-12-03T08:56:46.183Z,11.51
2018-12-03T09:01:49.873Z,11.50
2018-12-03T09:06:53.745Z,11.54
2018-12-03T09:11:57.301Z,11.62
2018-12-03T09:17:02.645Z,11.69
2018-12-03T09:22:06.325Z,11.81
2018-12-03T09:27:14.678Z,12.04
2018-12-03T09:32:18.115Z,12.54
2018-12-03T09:37:26.496Z,12.58
2018-12-03T09:42:32.757Z,12.61
2018-12-03T09:47:39.067Z,12.77
2018-12-03T09:52:43.334Z,12.57
2018-12-03T09:57:57.011Z,12.54
2018-12-03T10:03:06.275Z,13.00
2018-12-03T10:08:09.631Z,13.95
2018-12-03T10:13:13.466Z,14.33
2018-12-03T10:18:16.873Z,14.83
2018-12-03T10:23:20.454Z,14.78
2018-12-03T10:28:24.531Z,15.29
2018-12-03T10:33:36.756Z,14.89
2018-12-03T10:38:42.121Z,14.86
2018-12-03T10:43:45.502Z,14.08
2018-12-03T10:48:49.641Z,13.89
2018-12-03T10:53:53.106Z,13.71
2018-12-03T10:58:57.696Z,13.61
2018-12-03T11:04:01.633Z,14.08
2018-12-03T11:09:07.965Z,13.91
2018-12-03T11:14:12.536Z,13.82
2018-12-03T11:19:16.180Z,13.52
2018-12-03T11:24:19.552Z,13.58
2018-12-03T11:29:23.001Z,13.67
2018-12-03T11:34:27.302Z,13.82
2018-12-03T11:39:53.992Z,14.36
2018-12-03T11:44:57.357Z,15.14
2018-12-03T11:50:00.736Z,14.29
2018-12-03T11:55:04.943Z,13.99
2018-12-03T12:00:13.491Z,13.47
2018-12-03T12:05:18.907Z,12.73
2018-12-03T12:10:22.277Z,12.02
2018-12-03T12:15:27.748Z,12.00
2018-12-03T12:20:31.117Z,11.81
2018-12-03T12:25:34.531Z,11.82
2018-12-03T12:30:37.922Z,12.08
2018-12-03T12:35:41.342Z,12.91
2018-12-03T12:40:45.265Z,13.43
2018-12-03T12:46:00.857Z,14.77
2018-12-03T12:51:04.418Z,15.13
2018-12-03T12:56:07.932Z,13.90
2018-12-03T13:01:11.316Z,14.75
2018-12-03T13:06:14.742Z,13.86
2018-12-03T13:11:18.136Z,13.77
2018-12-03T13:16:21.480Z,13.94
2018-12-03T13:21:24.964Z,13.82
2018-12-03T13:26:29.177Z,14.22
2018-12-03T13:31:32.590Z,14.06
2018-12-03T13:36:36.112Z,14.00
2018-12-03T13:41:39.490Z,14.11
2018-12-03T13:46:43.619Z,14.49
2018-12-03T13:51:47.051Z,13.89
2018-12-03T13:56:50.715Z,13.48
2018-12-03T14:01:54.114Z,13.51
2018-12-03T14:07:19.669Z,13.48
2018-12-03T14:12:39.196Z,13.48
2018-12-03T14:18:12.830Z,14.12
2018-12-03T14:23:20.095Z,13.85
2018-12-03T14:28:23.566Z,13.37
2018-12-03T14:33:27.000Z,13.32
2018-12-03T14:38:30.373Z,13.22
2018-12-03T14:43:33.769Z,13.10
2018-12-03T14:48:37.121Z,12.97
2018-12-03T14:53:40.587Z,12.75
2018-12-03T14:58:51.689Z,12.43
2018-12-03T15:03:55.065Z,12.40
2018-12-03T15:08:58.468Z,12.22
2018-12-03T15:14:01.844Z,12.10
2018-12-03T15:19:30.473Z,12.03
2018-12-03T15:24:34.106Z,11.84
2018-12-03T15:29:38.106Z,11.51
2018-12-03T15:34:41.504Z,11.47
2018-12-03T15:39:44.868Z,11.40
2018-12-03T15:44:48.548Z,11.23
2018-12-03T15:49:51.914Z,11.10
2018-12-03T15:54:55.442Z,10.98
2018-12-03T15:59:58.808Z,11.10
2018-12-03T16:05:02.226Z,11.00
2018-12-03T16:10:10.130Z,10.76
2018-12-03T16:15:13.516Z,10.50
2018-12-03T16:20:17.189Z,10.37
2018-12-03T16:25:20.776Z,10.19
2018-12-03T16:30:25.126Z,10.26
2018-12-03T16:35:28.727Z,10.27
2018-12-03T16:40:33.218Z,10.27
2018-12-03T16:45:36.730Z,10.09
2018-12-03T16:50:40.212Z,10.07
2018-12-03T16:55:43.800Z,10.13
2018-12-03T17:00:47.447Z,10.04
2018-12-03T17:05:50.828Z,9.76
2018-12-03T17:10:54.758Z,9.70
2018-12-03T17:15:58.124Z,9.69
2018-12-03T17:21:12.147Z,9.86
2018-12-03T17:26:15.620Z,9.91
2018-12-03T17:31:19.005Z,10.14
2018-12-03T17:36:22.648Z,10.31
2018-12-03T17:41:26.181Z,10.29
2018-12-03T17:46:29.544Z,10.23
2018-12-03T17:51:32.923Z,10.13
2018-12-03T17:56:36.513Z,9.83
2018-12-03T18:01:40.546Z,9.52
2018-12-03T18:06:45.019Z,9.38
2018-12-03T18:11:48.897Z,9.35
2018-12-03T18:16:52.377Z,9.28
2018-12-03T18:21:55.753Z,9.38
2018-12-03T18:26:59.335Z,9.58
2018-12-03T18:32:02.694Z,10.03
2018-12-03T18:37:07.352Z,10.08
2018-12-03T18:42:11.033Z,9.96
2018-12-03T18:47:14.421Z,10.04
2018-12-03T18:52:19.284Z,9.96
2018-12-03T18:57:22.883Z,9.91
2018-12-03T19:02:26.255Z,9.91
2018-12-03T19:07:29.739Z,9.91
2018-12-03T19:12:33.123Z,9.72
2018-12-03T19:17:36.505Z,9.73
2018-12-03T19:22:39.868Z,9.71
2018-12-03T19:27:43.265Z,9.57
2018-12-03T19:32:46.622Z,9.55
2018-12-03T19:37:58.173Z,9.77
2018-12-03T19:43:01.567Z,9.96
2018-12-03T19:48:05.007Z,10.40
2018-12-03T19:53:08.371Z,10.55
2018-12-03T19:58:15.234Z,10.59
2018-12-03T20:03:18.594Z,10.55
2018-12-03T20:08:22.257Z,10.50
2018-12-03T20:13:25.672Z,10.27
2018-12-03T20:18:29.137Z,10.09
2018-12-03T20:23:38.610Z,9.83
2018-12-03T20:29:13.299Z,9.89
2018-12-03T20:34:32.484Z,9.97
2018-12-03T20:39:48.442Z,10.20
2018-12-03T20:45:36.274Z,10.31
2018-12-03T20:51:13.580Z,10.39
2018-12-03T20:56:17.029Z,10.24
2018-12-03T21:01:20.525Z,10.20
2018-12-03T21:06:23.912Z,10.32
2018-12-03T21:11:27.498Z,10.31
2018-12-03T21:16:30.873Z,10.39
2018-12-03T21:21:34.516Z,10.57
2018-12-03T21:26:37.934Z,10.53
2018-12-03T21:31:41.996Z,10.50
2018-12-03T21:36:45.673Z,10.56
2018-12-03T21:41:49.100Z,10.47
2018-12-03T21:46:52.484Z,10.38
2018-12-03T21:51:55.835Z,10.36
2018-12-03T21:56:59.243Z,10.40
2018-12-03T22:02:03.107Z,10.34
2018-12-03T22:07:07.524Z,10.18
2018-12-03T22:12:10.884Z,10.18
2018-12-03T22:17:14.266Z,10.03
2018-12-03T22:22:17.626Z,9.97
2018-12-03T22:27:21.049Z,10.03
2018-12-03T22:32:24.980Z,10.03
2018-12-03T22:37:28.346Z,9.98
2018-12-03T22:42:31.726Z,9.89
2018-12-03T22:47:35.100Z,9.83
2018-12-03T22:52:38.512Z,9.86
2018-12-03T22:57:41.915Z,9.83
2018-12-03T23:02:45.653Z,9.73
2018-12-03T23:07:49.149Z,9.68
2018-12-03T23:12:52.512Z,9.49
2018-12-03T23:17:55.892Z,9.58
2018-12-03T23:22:59.282Z,9.96
2018-12-03T23:28:02.695Z,10.01
2018-12-03T23:33:06.832Z,9.92
2018-12-03T23:38:10.268Z,9.96
2018-12-03T23:43:22.733Z,10.01
2018-12-03T23:48:26.106Z,10.10
2018-12-03T23:53:29.503Z,10.06
2018-12-03T23:58:32.937Z,10.07
